Time;durP1;ratioP1;P1;durP2;ratioP2;P2;SDS_P1;SDS_P2;PMS_P1;PMS_P2;Temp;Humidity;BMP_temperature;BMP_pressure;BME280_temperature;BME280_humidity;BME280_pressure;Samples;Min_cycle;Max_cycle;Signal;HPM_P1;HPM_P2
2024/03/05 00:01:18;;;;;;;51.75;23.20;;;;;;;;;;5057149;28;20099;-78
2024/03/05 00:03:45;;;;;;;47.92;22.42;;;;;;;;;;5072119;28;20025;-79
2024/03/05 00:06:11;;;;;;;49.20;23.45;;;;;;;;;;5069952;28;20067;-80
2024/03/05 00:08:37;;;;;;;55.33;22.95;;;;;;;;;;5070294;28;20444;-83
2024/03/05 00:11:04;;;;;;;49.75;22.35;;;;;;;;;;5043562;28;20017;-82
2024/03/05 00:13:30;;;;;;;49.63;23.75;;;;;;;;;;5062144;28;20032;-77
2024/03/05 00:15:57;;;;;;;45.83;21.00;;;;;;;;;;5054442;28;20028;-83
2024/03/05 00:18:23;;;;;;;56.03;21.60;;;;;;;;;;5052756;28;20021;-80
2024/03/05 00:20:49;;;;;;;56.22;21.38;;;;;;;;;;5055334;28;20021;-80
2024/03/05 00:23:15;;;;;;;54.92;22.95;;;;;;;;;;5056055;28;20106;-79
2024/03/05 00:25:42;;;;;;;51.67;23.38;;;;;;;;;;5053512;28;20166;-82
2024/03/05 00:28:08;;;;;;;51.90;22.42;;;;;;;;;;5054713;28;20020;-82
2024/03/05 00:30:34;;;;;;;49.55;22.08;;;;;;;;;;5055436;28;20032;-82
2024/03/05 00:33:00;;;;;;;51.40;22.63;;;;;;;;;;5055448;28;20023;-79
2024/03/05 00:35:27;;;;;;;49.53;21.30;;;;;;;;;;5060128;28;20100;-77
2024/03/05 00:37:54;;;;;;;50.60;22.60;;;;;;;;;;5065489;28;20019;-80
2024/03/05 00:40:20;;;;;;;52.17;20.48;;;;;;;;;;5056616;28;20020;-81
2024/03/05 00:42:46;;;;;;;43.50;20.45;;;;;;;;;;5069081;28;20549;-77
2024/03/05 00:45:12;;;;;;;48.42;20.17;;;;;;;;;;5063127;28;20097;-77
2024/03/05 00:47:39;;;;;;;46.17;19.10;;;;;;;;;;5053796;28;20033;-77
2024/03/05 00:50:06;;;;;;;41.35;21.27;;;;;;;;;;5051960;28;20565;-77
2024/03/05 00:52:33;;;;;;;41.83;21.02;;;;;;;;;;5054463;28;20035;-80
2024/03/05 00:54:59;;;;;;;49.55;21.65;;;;;;;;;;5052968;28;20112;-81
2024/03/05 00:57:25;;;;;;;43.97;20.02;;;;;;;;;;5064529;28;20056;-81
2024/03/05 00:59:53;;;;;;;53.53;23.27;;;;;;;;;;5061299;28;20533;-81
2024/03/05 01:02:21;;;;;;;103.78;39.33;;;;;;;;;;5064466;28;20017;-81
2024/03/05 01:04:47;;;;;;;62.15;26.77;;;;;;;;;;5062750;28;20044;-81
2024/03/05 01:07:13;;;;;;;45.75;20.42;;;;;;;;;;5064372;28;20028;-82
2024/03/05 01:09:40;;;;;;;44.90;19.25;;;;;;;;;;5058952;28;20017;-81
2024/03/05 01:12:07;;;;;;;45.08;19.30;;;;;;;;;;5060587;28;20123;-81
2024/03/05 01:14:33;;;;;;;39.42;21.45;;;;;;;;;;5059871;28;20067;-77
2024/03/05 01:16:59;;;;;;;36.88;17.10;;;;;;;;;;5056608;28;20040;-81
2024/03/05 01:19:25;;;;;;;43.60;18.27;;;;;;;;;;5052703;28;20104;-82
2024/03/05 01:21:51;;;;;;;42.35;20.20;;;;;;;;;;5066398;28;20028;-78
2024/03/05 01:24:17;;;;;;;41.60;19.45;;;;;;;;;;5071156;28;20115;-82
2024/03/05 01:26:43;;;;;;;41.10;18.33;;;;;;;;;;5068284;28;20128;-82
2024/03/05 01:29:12;;;;;;;46.35;20.15;;;;;;;;;;5062726;28;20406;-77
2024/03/05 01:31:38;;;;;;;42.15;18.55;;;;;;;;;;5060913;28;20482;-78
2024/03/05 01:34:05;;;;;;;39.42;18.38;;;;;;;;;;5067205;28;20032;-77
2024/03/05 01:36:31;;;;;;;44.05;19.17;;;;;;;;;;5064791;28;20021;-77
2024/03/05 01:38:57;;;;;;;57.45;22.33;;;;;;;;;;5061692;28;20021;-82
2024/03/05 01:41:23;;;;;;;35.13;16.00;;;;;;;;;;5061760;28;20017;-79
2024/03/05 01:43:50;;;;;;;35.30;15.20;;;;;;;;;;5060721;28;20083;-82
2024/03/05 01:46:17;;;;;;;30.13;14.60;;;;;;;;;;5054914;28;20038;-82
2024/03/05 01:48:44;;;;;;;32.55;15.95;;;;;;;;;;5060634;28;20107;-81
2024/03/05 01:51:11;;;;;;;30.75;15.93;;;;;;;;;;5070093;28;20135;-79
2024/03/05 01:53:38;;;;;;;30.83;14.93;;;;;;;;;;5060318;28;20021;-82
2024/03/05 01:56:05;;;;;;;27.73;14.13;;;;;;;;;;5052405;28;20044;-82
2024/03/05 01:58:31;;;;;;;30.13;13.75;;;;;;;;;;5050804;28;20032;-82
2024/03/05 02:00:58;;;;;;;28.38;14.27;;;;;;;;;;5050521;28;20017;-82
2024/03/05 02:03:25;;;;;;;28.60;13.85;;;;;;;;;;5051866;28;20047;-81
2024/03/05 02:05:51;;;;;;;28.08;13.60;;;;;;;;;;5056097;28;20046;-78
2024/03/05 02:08:17;;;;;;;24.67;13.88;;;;;;;;;;5054188;28;20025;-78
2024/03/05 02:10:47;;;;;;;26.27;13.48;;;;;;;;;;5056794;28;20028;-83
2024/03/05 02:13:13;;;;;;;22.08;12.43;;;;;;;;;;5058157;28;20013;-82
2024/03/05 02:15:39;;;;;;;26.17;13.20;;;;;;;;;;5060527;28;20107;-78
2024/03/05 02:18:07;;;;;;;23.27;12.68;;;;;;;;;;5063272;28;20025;-81
2024/03/05 02:20:34;;;;;;;25.00;14.07;;;;;;;;;;5067582;28;20020;-83
2024/03/05 02:23:02;;;;;;;23.70;12.90;;;;;;;;;;5063911;28;20024;-83
2024/03/05 02:25:28;;;;;;;22.55;12.45;;;;;;;;;;5062684;28;20466;-79
2024/03/05 02:27:55;;;;;;;24.45;13.07;;;;;;;;;;5060085;28;20033;-79
2024/03/05 02:30:22;;;;;;;23.73;11.98;;;;;;;;;;5054673;28;20382;-83
2024/03/05 02:32:48;;;;;;;18.98;11.63;;;;;;;;;;5058252;28;20029;-79
2024/03/05 02:35:14;;;;;;;23.92;12.75;;;;;;;;;;5058832;28;20021;-83
2024/03/05 02:37:40;;;;;;;21.73;12.00;;;;;;;;;;5067341;28;20383;-83
2024/03/05 02:40:08;;;;;;;25.45;13.63;;;;;;;;;;5061757;28;20070;-83
2024/03/05 02:42:35;;;;;;;27.38;15.00;;;;;;;;;;5061305;28;20494;-80
2024/03/05 02:45:04;;;;;;;28.48;14.30;;;;;;;;;;5065022;28;20120;-83
2024/03/05 02:47:30;;;;;;;20.33;13.07;;;;;;;;;;5067583;28;20115;-83
2024/03/05 02:49:56;;;;;;;29.98;14.88;;;;;;;;;;5072289;28;20042;-82
2024/03/05 02:52:22;;;;;;;19.10;11.18;;;;;;;;;;5073114;28;20137;-82
2024/03/05 02:54:48;;;;;;;20.67;12.40;;;;;;;;;;5064459;28;20021;-80
2024/03/05 02:57:14;;;;;;;19.75;12.25;;;;;;;;;;5070300;28;20025;-79
2024/03/05 02:59:41;;;;;;;17.95;11.55;;;;;;;;;;5063921;28;20029;-83
2024/03/05 03:02:07;;;;;;;17.30;11.52;;;;;;;;;;5059320;28;20112;-83
2024/03/05 03:04:33;;;;;;;18.02;10.50;;;;;;;;;;5055257;28;20029;-78
2024/03/05 03:06:59;;;;;;;17.45;10.52;;;;;;;;;;5056418;28;20040;-78
2024/03/05 03:09:25;;;;;;;15.07;9.52;;;;;;;;;;5054798;28;20390;-78
2024/03/05 03:11:51;;;;;;;14.75;8.85;;;;;;;;;;5053880;28;20021;-79
2024/03/05 03:14:17;;;;;;;13.38;8.38;;;;;;;;;;5050428;28;20022;-80
2024/03/05 03:16:43;;;;;;;15.55;9.93;;;;;;;;;;5050767;28;20531;-79
2024/03/05 03:19:10;;;;;;;19.98;10.93;;;;;;;;;;5055861;28;20025;-78
2024/03/05 03:21:36;;;;;;;18.58;10.32;;;;;;;;;;5068086;28;20036;-79
2024/03/05 03:24:03;;;;;;;14.63;10.40;;;;;;;;;;5058264;28;20474;-80
2024/03/05 03:26:29;;;;;;;17.35;12.10;;;;;;;;;;5064196;28;20032;-81
2024/03/05 03:28:55;;;;;;;16.10;10.23;;;;;;;;;;5055588;28;20033;-81
2024/03/05 03:31:25;;;;;;;20.25;10.82;;;;;;;;;;5057965;28;20044;-81
2024/03/05 03:33:52;;;;;;;13.80;9.43;;;;;;;;;;5060517;28;20016;-81
2024/03/05 03:36:24;;;;;;;17.50;10.32;;;;;;;;;;5058078;28;20025;-81
2024/03/05 03:38:51;;;;;;;18.42;10.60;;;;;;;;;;5057909;28;20530;-81
2024/03/05 03:41:17;;;;;;;17.27;10.13;;;;;;;;;;5052794;28;20479;-81
2024/03/05 03:43:43;;;;;;;12.50;8.93;;;;;;;;;;5054438;28;20056;-81
2024/03/05 03:46:09;;;;;;;16.92;10.20;;;;;;;;;;5055039;28;20028;-77
2024/03/05 03:48:38;;;;;;;16.50;9.80;;;;;;;;;;5056363;28;20028;-81
2024/03/05 03:51:04;;;;;;;15.50;10.95;;;;;;;;;;5060326;28;20478;-81
2024/03/05 03:53:33;;;;;;;20.80;12.45;;;;;;;;;;5053398;28;20090;-83
2024/03/05 03:55:59;;;;;;;16.17;10.13;;;;;;;;;;5056997;28;20025;-82
2024/03/05 03:58:25;;;;;;;17.67;10.90;;;;;;;;;;5059551;28;20024;-79
2024/03/05 04:00:52;;;;;;;18.00;10.45;;;;;;;;;;5058995;28;20027;-82
2024/03/05 04:03:19;;;;;;;19.02;10.90;;;;;;;;;;5060977;28;20142;-78
2024/03/05 04:05:45;;;;;;;19.73;10.77;;;;;;;;;;5057942;28;20048;-78
2024/03/05 04:08:11;;;;;;;16.50;11.52;;;;;;;;;;5071049;28;20048;-79
2024/03/05 04:10:37;;;;;;;20.50;10.95;;;;;;;;;;5055060;28;20025;-79
2024/03/05 04:13:04;;;;;;;18.05;11.23;;;;;;;;;;5062205;28;20024;-79
2024/03/05 04:15:30;;;;;;;22.15;12.82;;;;;;;;;;5072798;28;20096;-82
2024/03/05 04:17:57;;;;;;;19.70;12.02;;;;;;;;;;5071542;28;20024;-82
2024/03/05 04:20:25;;;;;;;21.80;13.95;;;;;;;;;;5062121;28;20988;-82
2024/03/05 04:22:51;;;;;;;18.98;11.82;;;;;;;;;;5058569;28;20066;-83
2024/03/05 04:25:21;;;;;;;15.85;10.57;;;;;;;;;;5061787;28;20024;-83
2024/03/05 04:27:47;;;;;;;16.73;10.40;;;;;;;;;;5054246;28;20111;-84
2024/03/05 04:30:14;;;;;;;16.52;9.95;;;;;;;;;;5052291;28;20041;-83
2024/03/05 04:32:46;;;;;;;20.10;10.20;;;;;;;;;;5052495;28;20515;-82
2024/03/05 04:35:18;;;;;;;20.53;11.53;;;;;;;;;;5052344;28;20021;-78
2024/03/05 04:37:45;;;;;;;20.83;11.65;;;;;;;;;;5055666;28;20402;-82
2024/03/05 04:40:12;;;;;;;21.00;12.23;;;;;;;;;;5059523;28;20186;-83
2024/03/05 04:42:39;;;;;;;19.88;12.07;;;;;;;;;;5060625;28;20047;-79
2024/03/05 04:45:07;;;;;;;16.83;10.00;;;;;;;;;;5064150;28;20199;-82
2024/03/05 04:47:33;;;;;;;26.65;15.48;;;;;;;;;;5056161;28;20067;-78
2024/03/05 04:49:59;;;;;;;21.95;10.95;;;;;;;;;;5070739;28;20442;-81
2024/03/05 04:52:27;;;;;;;16.63;10.38;;;;;;;;;;5067005;28;20075;-82
2024/03/05 04:54:54;;;;;;;20.23;10.90;;;;;;;;;;5070763;28;20043;-82
2024/03/05 04:57:20;;;;;;;17.40;10.73;;;;;;;;;;5067333;28;20024;-83
2024/03/05 04:59:46;;;;;;;15.52;10.35;;;;;;;;;;5068882;28;20043;-80
2024/03/05 05:02:12;;;;;;;16.92;9.75;;;;;;;;;;5054894;28;20046;-82
2024/03/05 05:04:38;;;;;;;16.27;10.15;;;;;;;;;;5064865;28;20412;-82
2024/03/05 05:07:08;;;;;;;14.50;9.00;;;;;;;;;;5058411;28;20078;-78
2024/03/05 05:09:34;;;;;;;18.23;10.57;;;;;;;;;;5060963;28;20540;-81
2024/03/05 05:12:00;;;;;;;17.33;9.85;;;;;;;;;;5063987;28;20065;-79
2024/03/05 05:14:26;;;;;;;16.23;11.35;;;;;;;;;;5068773;28;20036;-79
2024/03/05 05:16:52;;;;;;;12.57;8.57;;;;;;;;;;5064464;28;20017;-82
2024/03/05 05:19:19;;;;;;;14.85;8.32;;;;;;;;;;5059757;28;20029;-79
2024/03/05 05:21:45;;;;;;;16.30;10.15;;;;;;;;;;5055983;28;20111;-79
2024/03/05 05:24:11;;;;;;;14.27;10.73;;;;;;;;;;5059276;28;20412;-79
2024/03/05 05:26:39;;;;;;;14.50;8.75;;;;;;;;;;5057010;28;20033;-79
2024/03/05 05:29:05;;;;;;;15.80;10.77;;;;;;;;;;5060862;28;20025;-79
2024/03/05 05:31:31;;;;;;;14.70;9.82;;;;;;;;;;5056500;28;20104;-79
2024/03/05 05:33:57;;;;;;;16.35;10.48;;;;;;;;;;5059521;28;20070;-79
2024/03/05 05:36:24;;;;;;;16.70;10.55;;;;;;;;;;5041804;28;20022;-79
2024/03/05 05:38:50;;;;;;;18.38;10.15;;;;;;;;;;5058203;28;20482;-79
2024/03/05 05:41:21;;;;;;;17.48;11.20;;;;;;;;;;5055349;28;20078;-82
2024/03/05 05:43:48;;;;;;;16.70;10.90;;;;;;;;;;5056154;28;20055;-83
2024/03/05 05:46:21;;;;;;;20.90;11.68;;;;;;;;;;5059902;28;20024;-82
2024/03/05 05:48:52;;;;;;;25.23;13.85;;;;;;;;;;5065157;28;20447;-78
2024/03/05 05:51:18;;;;;;;21.48;13.95;;;;;;;;;;5063131;28;20385;-79
2024/03/05 05:53:45;;;;;;;31.17;14.68;;;;;;;;;;5070331;28;20017;-78
2024/03/05 05:56:11;;;;;;;25.75;14.32;;;;;;;;;;5072139;28;20029;-79
2024/03/05 05:58:37;;;;;;;64.22;29.83;;;;;;;;;;5068335;28;20394;-80
2024/03/05 06:01:05;;;;;;;27.42;15.45;;;;;;;;;;5055490;28;20052;-80
2024/03/05 06:03:34;;;;;;;27.00;15.13;;;;;;;;;;5070345;28;20059;-79
2024/03/05 06:06:01;;;;;;;26.77;14.40;;;;;;;;;;5073630;28;20067;-80
2024/03/05 06:08:27;;;;;;;25.10;15.27;;;;;;;;;;5058572;28;20029;-84
2024/03/05 06:10:53;;;;;;;30.70;17.90;;;;;;;;;;5049551;28;20017;-84
2024/03/05 06:13:22;;;;;;;35.08;16.48;;;;;;;;;;5053113;28;20036;-81
2024/03/05 06:15:49;;;;;;;29.67;15.38;;;;;;;;;;5066257;28;20067;-82
2024/03/05 06:18:16;;;;;;;29.83;16.10;;;;;;;;;;5062132;28;20041;-81
2024/03/05 06:20:43;;;;;;;33.00;16.92;;;;;;;;;;5064917;28;20027;-82
2024/03/05 06:23:11;;;;;;;46.85;21.67;;;;;;;;;;5054996;28;20034;-78
2024/03/05 06:25:39;;;;;;;73.28;31.73;;;;;;;;;;5052007;28;20017;-77
2024/03/05 06:28:07;;;;;;;32.22;17.05;;;;;;;;;;5062811;28;20734;-79
2024/03/05 06:30:33;;;;;;;34.58;19.10;;;;;;;;;;5057669;28;20029;-78
2024/03/05 06:32:59;;;;;;;35.92;19.40;;;;;;;;;;5057488;28;20021;-78
2024/03/05 06:35:28;;;;;;;36.17;19.75;;;;;;;;;;5054035;28;20061;-77
2024/03/05 06:37:57;;;;;;;39.67;18.58;;;;;;;;;;5060554;28;20080;-77
2024/03/05 06:40:25;;;;;;;37.25;19.90;;;;;;;;;;5060251;28;20029;-79
2024/03/05 06:43:03;;;;;;;56.03;26.60;;;;;;;;;;5061458;28;20083;-77
2024/03/05 06:45:36;;;;;;;42.33;21.20;;;;;;;;;;5060073;28;20025;-79
2024/03/05 06:48:07;;;;;;;;;;;;;;;;;;5069155;28;20031;-78
2024/03/05 06:50:37;;;;;;;47.05;20.48;;;;;;;;;;5069920;28;19905;-79
2024/03/05 06:58:44;;;;;;;114.82;48.15;;;;;;;;;;5060586;28;20086;-79
2024/03/05 07:01:11;;;;;;;136.75;55.22;;;;;;;;;;5060389;28;20017;-79
2024/03/05 07:03:38;;;;;;;120.78;52.90;;;;;;;;;;5056491;28;20021;-78
2024/03/05 07:06:08;;;;;;;157.65;61.45;;;;;;;;;;5054237;28;20454;-79
2024/03/05 07:08:40;;;;;;;187.10;76.22;;;;;;;;;;5048073;28;20024;-80
2024/03/05 07:11:09;;;;;;;58.08;28.40;;;;;;;;;;5073885;28;20028;-79
2024/03/05 07:13:36;;;;;;;82.72;35.85;;;;;;;;;;5070564;28;20120;-78
2024/03/05 07:16:03;;;;;;;67.60;30.58;;;;;;;;;;5071076;28;20028;-77
2024/03/05 07:18:29;;;;;;;65.32;30.02;;;;;;;;;;5066658;28;20029;-77
2024/03/05 07:20:56;;;;;;;52.35;25.60;;;;;;;;;;5057387;28;20070;-78
2024/03/05 07:23:22;;;;;;;53.50;25.33;;;;;;;;;;5056758;28;20842;-78
2024/03/05 07:25:48;;;;;;;55.63;24.65;;;;;;;;;;5057646;28;20032;-78
2024/03/05 07:28:17;;;;;;;50.40;24.15;;;;;;;;;;5055301;28;20562;-77
2024/03/05 07:30:43;;;;;;;59.30;26.42;;;;;;;;;;5059323;28;20031;-79
2024/03/05 07:33:09;;;;;;;58.08;27.90;;;;;;;;;;5054725;28;20386;-78
2024/03/05 07:35:40;;;;;;;83.50;42.63;;;;;;;;;;5068176;28;20016;-78
2024/03/05 07:38:09;;;;;;;66.28;30.50;;;;;;;;;;5069216;28;20036;-78
2024/03/05 07:40:35;;;;;;;59.72;29.40;;;;;;;;;;5064121;28;20040;-80
2024/03/05 07:43:04;;;;;;;66.47;29.95;;;;;;;;;;5061389;28;20137;-77
2024/03/05 07:45:33;;;;;;;86.47;31.98;;;;;;;;;;5062652;28;20063;-78
2024/03/05 07:47:59;;;;;;;93.72;36.35;;;;;;;;;;5053351;28;20438;-80
2024/03/05 07:50:25;;;;;;;102.88;36.63;;;;;;;;;;5062962;28;20047;-79
2024/03/05 07:52:53;;;;;;;86.07;35.17;;;;;;;;;;5057748;28;20021;-80
2024/03/05 07:55:21;;;;;;;96.43;37.47;;;;;;;;;;5051879;28;20040;-80
2024/03/05 07:57:52;;;;;;;81.70;32.30;;;;;;;;;;5051774;28;20446;-79
2024/03/05 08:00:20;;;;;;;75.10;28.92;;;;;;;;;;5052429;28;20032;-82
2024/03/05 08:02:47;;;;;;;79.78;30.48;;;;;;;;;;5059109;28;20108;-81
2024/03/05 08:05:23;;;;;;;62.60;32.45;;;;;;;;;;5054906;28;20069;-80
2024/03/05 08:07:56;;;;;;;54.13;26.85;;;;;;;;;;5059767;28;20536;-79
2024/03/05 08:10:23;;;;;;;61.75;25.77;;;;;;;;;;5057836;28;20039;-80
2024/03/05 08:12:50;;;;;;;52.80;26.20;;;;;;;;;;5063003;28;20013;-80
2024/03/05 08:15:17;;;;;;;53.35;25.67;;;;;;;;;;5060692;28;20021;-80
2024/03/05 08:17:50;;;;;;;50.97;25.17;;;;;;;;;;5063124;28;20028;-79
2024/03/05 08:20:17;;;;;;;54.60;25.45;;;;;;;;;;5058045;28;20048;-80
2024/03/05 08:22:45;;;;;;;55.42;24.15;;;;;;;;;;5062104;28;20120;-80
2024/03/05 08:25:15;;;;;;;47.08;21.63;;;;;;;;;;5063990;28;20020;-80
2024/03/05 08:27:45;;;;;;;48.22;24.75;;;;;;;;;;5062927;28;20487;-79
2024/03/05 08:30:24;;;;;;;50.92;21.75;;;;;;;;;;5064940;28;20027;-79
2024/03/05 08:32:52;;;;;;;51.70;25.17;;;;;;;;;;5064289;28;20500;-79
2024/03/05 08:35:18;;;;;;;50.33;23.60;;;;;;;;;;5063290;28;20436;-79
2024/03/05 08:37:45;;;;;;;53.05;24.02;;;;;;;;;;5066510;28;20017;-78
2024/03/05 08:40:21;;;;;;;47.03;23.90;;;;;;;;;;5043715;28;20407;-79
2024/03/05 08:42:48;;;;;;;54.30;26.63;;;;;;;;;;5052821;28;20448;-79
2024/03/05 08:45:20;;;;;;;45.05;22.27;;;;;;;;;;5053087;28;20033;-78
2024/03/05 08:47:49;;;;;;;46.38;23.25;;;;;;;;;;5051078;28;20029;-84
2024/03/05 08:50:16;;;;;;;43.50;22.27;;;;;;;;;;5052804;28;20033;-82
2024/03/05 08:52:43;;;;;;;45.20;23.63;;;;;;;;;;5054531;28;20048;-83
2024/03/05 08:55:10;;;;;;;46.72;23.83;;;;;;;;;;5057528;28;20025;-79
2024/03/05 08:57:37;;;;;;;52.85;24.33;;;;;;;;;;5066893;28;20027;-82
2024/03/05 09:00:03;;;;;;;49.65;25.23;;;;;;;;;;5061715;28;20017;-83
2024/03/05 09:02:29;;;;;;;60.67;25.90;;;;;;;;;;5051545;28;20048;-82
2024/03/05 09:04:55;;;;;;;52.15;26.58;;;;;;;;;;5051332;28;20056;-82
2024/03/05 09:07:22;;;;;;;54.42;25.58;;;;;;;;;;5052668;28;20067;-78
2024/03/05 09:09:48;;;;;;;48.00;23.95;;;;;;;;;;5051484;28;20025;-78
2024/03/05 09:12:14;;;;;;;51.33;26.80;;;;;;;;;;5052835;28;20048;-78
2024/03/05 09:14:41;;;;;;;72.35;27.27;;;;;;;;;;5051727;28;20028;-78
2024/03/05 09:17:09;;;;;;;96.05;31.08;;;;;;;;;;5050991;28;20035;-81
2024/03/05 09:19:35;;;;;;;51.00;26.38;;;;;;;;;;5066086;28;20036;-82
2024/03/05 09:22:04;;;;;;;56.28;27.17;;;;;;;;;;5050456;28;20368;-81
2024/03/05 09:24:31;;;;;;;55.25;27.30;;;;;;;;;;5052395;28;20021;-78
2024/03/05 09:26:59;;;;;;;62.38;26.05;;;;;;;;;;5059855;28;20052;-82
2024/03/05 09:29:25;;;;;;;55.72;26.08;;;;;;;;;;5071900;28;20096;-77
2024/03/05 09:31:51;;;;;;;52.65;26.27;;;;;;;;;;5070656;28;20021;-81
2024/03/05 09:34:18;;;;;;;60.45;27.45;;;;;;;;;;5069768;28;20021;-77
2024/03/05 09:36:44;;;;;;;46.25;24.67;;;;;;;;;;5064038;28;20028;-80
2024/03/05 09:39:10;;;;;;;49.80;26.08;;;;;;;;;;5063442;28;20041;-78
2024/03/05 09:41:41;;;;;;;56.13;28.70;;;;;;;;;;5060776;28;20029;-81
2024/03/05 09:44:08;;;;;;;58.45;29.60;;;;;;;;;;5053191;28;20056;-81
2024/03/05 09:46:37;;;;;;;51.53;28.33;;;;;;;;;;5067568;28;20044;-81
2024/03/05 09:49:04;;;;;;;55.40;27.80;;;;;;;;;;5064207;28;20042;-82
2024/03/05 09:51:33;;;;;;;47.95;24.48;;;;;;;;;;5068551;28;20371;-81
2024/03/05 09:53:59;;;;;;;52.30;25.58;;;;;;;;;;5054849;28;20550;-81
2024/03/05 09:56:25;;;;;;;54.60;27.67;;;;;;;;;;5055623;28;20104;-82
2024/03/05 09:58:52;;;;;;;52.13;26.00;;;;;;;;;;5054775;28;20032;-82
2024/03/05 10:01:18;;;;;;;50.30;24.95;;;;;;;;;;5055267;28;20533;-82
2024/03/05 10:03:44;;;;;;;51.38;26.02;;;;;;;;;;5068276;28;20069;-82
2024/03/05 10:06:11;;;;;;;51.72;25.30;;;;;;;;;;5066581;28;20021;-81
2024/03/05 10:08:38;;;;;;;42.88;25.55;;;;;;;;;;5061784;28;20036;-81
2024/03/05 10:11:04;;;;;;;125.40;54.72;;;;;;;;;;5059219;28;20017;-80
2024/03/05 10:13:31;;;;;;;53.00;28.33;;;;;;;;;;5063237;28;20475;-81
2024/03/05 10:16:17;;;;;;;50.72;26.17;;;;;;;;;;5053381;28;20052;-81
2024/03/05 10:18:44;;;;;;;53.30;25.67;;;;;;;;;;5057341;28;20509;-81
2024/03/05 10:21:24;;;;;;;44.22;26.15;;;;;;;;;;5058026;28;20017;-81
2024/03/05 10:23:59;;;;;;;42.88;23.58;;;;;;;;;;5061099;28;20120;-79
2024/03/05 10:26:30;;;;;;;47.80;25.48;;;;;;;;;;5057859;28;20104;-78
2024/03/05 10:29:09;;;;;;;49.45;27.08;;;;;;;;;;5058408;28;20035;-81
2024/03/05 10:31:35;;;;;;;46.72;24.77;;;;;;;;;;5056687;28;20074;-81
2024/03/05 10:34:01;;;;;;;49.88;25.30;;;;;;;;;;5046843;28;20398;-76
2024/03/05 10:36:28;;;;;;;44.25;24.95;;;;;;;;;;5054412;28;20033;-77
2024/03/05 10:38:55;;;;;;;40.78;22.48;;;;;;;;;;5053764;28;20513;-76
2024/03/05 10:41:22;;;;;;;41.45;23.30;;;;;;;;;;5054398;28;20021;-77
2024/03/05 10:43:50;;;;;;;40.50;22.38;;;;;;;;;;5053420;28;20045;-76
2024/03/05 10:46:17;;;;;;;43.10;23.50;;;;;;;;;;5051440;28;20501;-75
2024/03/05 10:48:43;;;;;;;54.10;27.92;;;;;;;;;;5041041;28;20103;-77
2024/03/05 10:51:10;;;;;;;45.40;24.67;;;;;;;;;;5062221;28;20111;-78
2024/03/05 10:53:37;;;;;;;50.58;27.42;;;;;;;;;;5064948;28;20040;-77
2024/03/05 10:56:04;;;;;;;50.05;25.92;;;;;;;;;;5062422;28;20020;-77
2024/03/05 11:01:03;;;;;;;44.63;24.93;;;;;;;;;;5059813;28;20471;-78
2024/03/05 11:03:40;;;;;;;45.13;24.42;;;;;;;;;;5052499;28;20808;-77
2024/03/05 11:06:07;;;;;;;47.72;26.65;;;;;;;;;;5054850;28;20063;-77
2024/03/05 11:08:36;;;;;;;50.00;27.17;;;;;;;;;;5054941;28;20056;-77
2024/03/05 11:11:12;;;;;;;53.42;27.80;;;;;;;;;;5053265;28;20017;-77
2024/03/05 11:13:39;;;;;;;50.75;27.70;;;;;;;;;;5060425;28;20036;-77
2024/03/05 11:16:06;;;;;;;46.80;27.27;;;;;;;;;;5074258;28;20103;-77
2024/03/05 11:18:33;;;;;;;49.90;26.60;;;;;;;;;;5033673;28;20025;-77
2024/03/05 11:21:05;;;;;;;47.55;27.23;;;;;;;;;;5050892;28;20505;-77
2024/03/05 11:23:32;;;;;;;53.17;27.27;;;;;;;;;;5053646;28;20025;-77
2024/03/05 11:26:07;;;;;;;51.80;27.35;;;;;;;;;;5055801;28;20082;-78
2024/03/05 11:28:35;;;;;;;47.60;25.48;;;;;;;;;;5054202;28;20505;-78
2024/03/05 11:31:11;;;;;;;45.67;24.33;;;;;;;;;;5056147;28;20052;-78
2024/03/05 11:33:40;;;;;;;47.90;25.95;;;;;;;;;;5061443;28;20524;-78
2024/03/05 11:36:22;;;;;;;43.67;23.75;;;;;;;;;;5061819;28;20024;-78
2024/03/05 11:39:03;;;;;;;40.90;23.20;;;;;;;;;;5052241;28;20021;-78
2024/03/05 11:41:31;;;;;;;39.42;20.98;;;;;;;;;;5043563;28;20037;-77
2024/03/05 11:43:57;;;;;;;31.63;20.70;;;;;;;;;;5062644;28;20045;-77
2024/03/05 11:46:38;;;;;;;34.67;19.48;;;;;;;;;;5062652;28;20056;-77
2024/03/05 11:49:07;;;;;;;33.45;19.52;;;;;;;;;;5057835;28;20028;-77
2024/03/05 11:51:33;;;;;;;32.80;17.42;;;;;;;;;;5059192;28;20022;-77
2024/03/05 11:54:00;;;;;;;32.53;19.05;;;;;;;;;;5063751;28;20046;-77
2024/03/05 11:56:35;;;;;;;29.17;16.50;;;;;;;;;;5055445;28;20021;-77
2024/03/05 11:59:02;;;;;;;29.00;15.80;;;;;;;;;;5066814;28;20458;-77
2024/03/05 12:01:30;;;;;;;24.65;15.27;;;;;;;;;;5048355;28;20028;-76
2024/03/05 12:04:00;;;;;;;23.10;14.65;;;;;;;;;;5050281;28;20025;-77
2024/03/05 12:06:27;;;;;;;24.52;15.80;;;;;;;;;;5048467;28;20083;-77
2024/03/05 12:08:54;;;;;;;327.13;139.90;;;;;;;;;;5053769;28;20052;-76
2024/03/05 12:11:20;;;;;;;81.68;37.88;;;;;;;;;;5046664;28;20035;-77
2024/03/05 12:13:47;;;;;;;410.77;174.95;;;;;;;;;;5054638;28;20023;-77
2024/03/05 12:16:16;;;;;;;85.82;39.40;;;;;;;;;;5042295;28;20036;-77
2024/03/05 12:18:42;;;;;;;179.95;78.72;;;;;;;;;;5052945;28;20541;-76
2024/03/05 12:21:08;;;;;;;100.80;45.85;;;;;;;;;;5050141;28;20029;-74
2024/03/05 12:23:35;;;;;;;133.43;56.70;;;;;;;;;;5057218;28;20029;-73
2024/03/05 12:26:01;;;;;;;313.55;126.43;;;;;;;;;;5051447;28;20021;-75
2024/03/05 12:28:27;;;;;;;110.63;49.33;;;;;;;;;;5059579;28;20043;-75
2024/03/05 12:30:55;;;;;;;118.28;49.35;;;;;;;;;;5055360;28;20070;-75
2024/03/05 12:33:22;;;;;;;47.88;21.70;;;;;;;;;;5058304;28;20401;-75
2024/03/05 12:35:49;;;;;;;23.48;16.00;;;;;;;;;;5054251;28;20048;-75
2024/03/05 12:38:16;;;;;;;29.00;16.17;;;;;;;;;;5058578;28;20368;-75
2024/03/05 12:40:42;;;;;;;27.58;14.77;;;;;;;;;;5048687;28;20036;-75
2024/03/05 12:43:10;;;;;;;25.50;15.35;;;;;;;;;;5039343;28;20049;-75
2024/03/05 12:45:36;;;;;;;241.32;85.20;;;;;;;;;;5045447;28;20021;-75
2024/03/05 12:48:05;;;;;;;109.82;42.17;;;;;;;;;;5053196;28;20032;-76
2024/03/05 12:50:32;;;;;;;87.80;36.85;;;;;;;;;;5059606;28;20027;-75
2024/03/05 12:53:04;;;;;;;45.42;20.42;;;;;;;;;;5062927;28;20508;-75
2024/03/05 12:55:30;;;;;;;54.55;21.88;;;;;;;;;;5060052;28;20436;-75
2024/03/05 12:58:06;;;;;;;27.83;14.10;;;;;;;;;;5043555;28;20079;-76
2024/03/05 13:00:36;;;;;;;119.78;45.92;;;;;;;;;;5052172;28;20103;-75
2024/03/05 13:03:06;;;;;;;19.02;12.65;;;;;;;;;;5052768;28;20024;-75
2024/03/05 13:05:36;;;;;;;156.63;55.75;;;;;;;;;;5051208;28;20398;-75
2024/03/05 13:08:04;;;;;;;199.57;72.45;;;;;;;;;;5051862;28;20091;-75
2024/03/05 13:10:30;;;;;;;81.38;32.80;;;;;;;;;;5055082;28;20021;-75
2024/03/05 13:12:56;;;;;;;128.82;48.40;;;;;;;;;;5049880;28;20108;-75
2024/03/05 13:15:23;;;;;;;122.22;45.10;;;;;;;;;;5052962;28;20029;-75
2024/03/05 13:17:53;;;;;;;110.93;42.40;;;;;;;;;;5052236;28;20025;-75
2024/03/05 13:20:19;;;;;;;105.13;42.95;;;;;;;;;;5053193;28;20025;-76
2024/03/05 13:22:52;;;;;;;128.85;51.35;;;;;;;;;;5053801;28;20082;-75
2024/03/05 13:25:18;;;;;;;118.57;47.85;;;;;;;;;;5055263;28;20070;-76
2024/03/05 13:27:46;;;;;;;63.83;27.42;;;;;;;;;;5054785;28;20060;-75
2024/03/05 13:30:16;;;;;;;67.85;30.00;;;;;;;;;;5048466;28;20025;-76
2024/03/05 13:32:42;;;;;;;159.98;68.10;;;;;;;;;;5049588;28;20429;-76
2024/03/05 13:35:08;;;;;;;124.82;51.70;;;;;;;;;;5059613;28;20025;-76
2024/03/05 13:37:35;;;;;;;68.63;31.17;;;;;;;;;;5058219;28;20478;-76
2024/03/05 13:40:03;;;;;;;27.35;16.00;;;;;;;;;;5060814;28;20021;-75
2024/03/05 13:42:29;;;;;;;28.63;15.23;;;;;;;;;;5064019;28;20087;-75
2024/03/05 13:44:56;;;;;;;24.08;14.25;;;;;;;;;;5053832;28;20025;-75
2024/03/05 13:47:22;;;;;;;26.13;14.82;;;;;;;;;;5055919;28;20037;-75
2024/03/05 13:49:49;;;;;;;26.27;13.70;;;;;;;;;;5047344;28;20032;-75
2024/03/05 13:52:15;;;;;;;21.30;13.20;;;;;;;;;;5066436;28;20024;-75
2024/03/05 13:54:41;;;;;;;30.45;15.63;;;;;;;;;;5060067;28;20475;-76
2024/03/05 13:57:07;;;;;;;25.67;14.00;;;;;;;;;;5054163;28;20485;-75
2024/03/05 13:59:34;;;;;;;30.20;16.48;;;;;;;;;;5058790;28;20478;-75
2024/03/05 14:02:03;;;;;;;28.30;15.02;;;;;;;;;;5050757;28;20036;-75
2024/03/05 14:04:29;;;;;;;28.13;14.88;;;;;;;;;;5052165;28;20068;-75
2024/03/05 14:06:55;;;;;;;26.20;15.10;;;;;;;;;;5054997;28;20024;-76
2024/03/05 14:09:21;;;;;;;23.77;14.48;;;;;;;;;;5054563;28;20031;-76
2024/03/05 14:11:48;;;;;;;21.90;13.13;;;;;;;;;;5059043;28;20056;-75
2024/03/05 14:14:16;;;;;;;21.98;13.68;;;;;;;;;;5054283;28;20023;-77
2024/03/05 14:16:43;;;;;;;25.63;12.85;;;;;;;;;;5061192;28;20063;-75
2024/03/05 14:19:09;;;;;;;23.83;14.00;;;;;;;;;;5047750;28;20021;-75
2024/03/05 14:21:35;;;;;;;26.58;14.98;;;;;;;;;;5060729;28;20120;-75
2024/03/05 14:24:01;;;;;;;28.05;15.65;;;;;;;;;;5043558;28;20109;-75
2024/03/05 14:26:28;;;;;;;31.77;19.23;;;;;;;;;;5036207;28;20391;-75